createdAt,value
2017-10-28T00:01:17.315Z,99184.42
2017-10-28T00:03:45.751Z,99181.84
2017-10-28T00:06:13.568Z,99195.34
2017-10-28T00:08:41.279Z,99213.61
2017-10-28T00:11:08.880Z,99205.12
2017-10-28T00:13:36.519Z,99206.30
2017-10-28T00:16:04.268Z,99220.16
2017-10-28T00:18:31.872Z,99229.26
2017-10-28T00:20:59.480Z,99238.74
2017-10-28T00:23:27.888Z,99244.77
2017-10-28T00:25:55.487Z,99259.33
2017-10-28T00:28:24.027Z,99262.81
2017-10-28T00:30:57.650Z,99263.81
2017-10-28T00:33:30.771Z,99259.22
2017-10-28T00:36:15.289Z,99267.20
2017-10-28T00:38:43.015Z,99272.66
2017-10-28T00:41:11.440Z,99270.52
2017-10-28T00:43:39.759Z,99280.39
2017-10-28T00:46:07.424Z,99265.47
2017-10-28T00:48:35.116Z,99278.30
2017-10-28T00:51:02.772Z,99268.99
2017-10-28T00:53:30.518Z,99270.33
2017-10-28T00:55:58.124Z,99267.53
2017-10-28T00:58:25.778Z,99262.68
2017-10-28T01:00:53.380Z,99268.45
2017-10-28T01:03:21.157Z,99279.73
2017-10-28T01:05:48.856Z,99284.87
2017-10-28T01:08:16.518Z,99284.30
2017-10-28T01:10:44.181Z,99284.16
2017-10-28T01:13:11.899Z,99278.06
2017-10-28T01:15:39.564Z,99288.69
2017-10-28T01:18:07.168Z,99291.83
2017-10-28T01:20:35.723Z,99301.50
2017-10-28T01:23:04.295Z,99301.80
2017-10-28T01:25:32.012Z,99302.95
2017-10-28T01:27:59.658Z,99306.09
2017-10-28T01:30:28.055Z,99301.74
2017-10-28T01:32:56.617Z,99304.55
2017-10-28T01:35:25.146Z,99317.18
2017-10-28T01:37:52.743Z,99325.80
2017-10-28T01:40:20.343Z,99328.17
2017-10-28T01:42:48.037Z,99317.19
2017-10-28T01:45:15.735Z,99332.75
2017-10-28T01:47:43.327Z,99328.29
2017-10-28T01:50:11.020Z,99334.19
2017-10-28T01:52:38.650Z,99336.07
2017-10-28T01:55:07.094Z,99350.05
2017-10-28T01:57:34.804Z,99346.11
2017-10-28T02:00:02.456Z,99362.78
2017-10-28T02:02:30.251Z,99364.14
2017-10-28T02:04:57.952Z,99367.45
2017-10-28T02:07:25.560Z,99362.97
2017-10-28T02:09:53.160Z,99367.75
2017-10-28T02:12:21.255Z,99364.62
2017-10-28T02:14:48.852Z,99367.09
2017-10-28T02:17:16.532Z,99374.55
2017-10-28T02:19:44.260Z,99383.70
2017-10-28T02:22:12.053Z,99385.66
2017-10-28T02:24:39.712Z,99378.19
2017-10-28T02:27:08.241Z,99383.25
2017-10-28T02:29:36.843Z,99387.78
2017-10-28T02:32:05.425Z,99393.57
2017-10-28T02:34:33.133Z,99399.77
2017-10-28T02:37:00.788Z,99405.11
2017-10-28T02:39:28.394Z,99404.34
2017-10-28T02:41:56.044Z,99399.47
2017-10-28T02:44:23.683Z,99403.36
2017-10-28T02:46:51.289Z,99398.13
2017-10-28T02:49:18.949Z,99400.41
2017-10-28T02:51:46.609Z,99403.45
2017-10-28T02:54:14.279Z,99408.65
2017-10-28T02:56:41.920Z,99404.73
2017-10-28T02:59:09.528Z,99401.69
2017-10-28T03:01:37.144Z,99409.22
2017-10-28T03:04:04.825Z,99401.65
2017-10-28T03:06:32.436Z,99408.80
2017-10-28T03:09:00.092Z,99406.42
2017-10-28T03:11:28.641Z,99409.53
2017-10-28T03:13:56.311Z,99406.61
2017-10-28T03:16:24.013Z,99404.20
2017-10-28T03:18:51.668Z,99412.98
2017-10-28T03:21:19.287Z,99410.62
2017-10-28T03:23:47.139Z,99413.08
2017-10-28T03:26:14.852Z,99405.89
2017-10-28T03:28:42.542Z,99414.95
2017-10-28T03:31:10.206Z,99408.96
2017-10-28T03:33:37.859Z,99410.08
2017-10-28T03:36:06.203Z,99411.42
2017-10-28T03:38:33.870Z,99409.72
2017-10-28T03:41:01.524Z,99416.86
2017-10-28T03:43:29.334Z,99417.65
2017-10-28T03:45:56.996Z,99406.52
2017-10-28T03:48:24.732Z,99411.06
2017-10-28T03:50:52.373Z,99412.73
2017-10-28T03:53:20.116Z,99414.13
2017-10-28T03:55:47.936Z,99400.77
2017-10-28T03:58:15.539Z,99421.03
2017-10-28T04:00:43.138Z,99412.25
2017-10-28T04:03:11.744Z,99426.49
2017-10-28T04:05:39.452Z,99428.63
2017-10-28T04:08:07.065Z,99420.33
2017-10-28T04:10:34.838Z,99414.61
2017-10-28T04:13:02.453Z,99425.12
2017-10-28T04:15:30.067Z,99427.50
2017-10-28T04:17:57.897Z,99427.87
2017-10-28T04:20:25.606Z,99422.94
2017-10-28T04:22:53.288Z,99432.86
2017-10-28T04:25:21.044Z,99438.30
2017-10-28T04:27:48.728Z,99444.61
2017-10-28T04:30:16.396Z,99438.49
2017-10-28T04:32:44.116Z,99436.13
2017-10-28T04:35:11.788Z,99441.09
2017-10-28T04:37:39.656Z,99430.42
2017-10-28T04:40:07.583Z,99431.95
2017-10-28T04:42:35.380Z,99443.31
2017-10-28T04:45:03.076Z,99439.23
2017-10-28T04:47:30.780Z,99441.92
2017-10-28T04:49:58.387Z,99454.06
2017-10-28T04:52:26.871Z,99445.72
2017-10-28T04:54:54.587Z,99454.53
2017-10-28T04:57:22.359Z,99452.28
2017-10-28T04:59:50.080Z,99444.91
2017-10-28T05:02:17.752Z,99455.71
2017-10-28T05:04:45.495Z,99450.06
2017-10-28T05:07:13.120Z,99461.32
2017-10-28T05:09:40.932Z,99456.27
2017-10-28T05:12:08.604Z,99454.59
2017-10-28T05:14:36.237Z,99450.72
2017-10-28T05:17:03.896Z,99451.28
2017-10-28T05:19:31.556Z,99458.38
2017-10-28T05:21:59.308Z,99454.14
2017-10-28T05:24:26.974Z,99457.52
2017-10-28T05:26:54.645Z,99461.27
2017-10-28T05:29:22.315Z,99451.00
2017-10-28T05:31:50.899Z,99456.11
2017-10-28T05:34:18.503Z,99451.19
2017-10-28T05:36:46.174Z,99457.73
2017-10-28T05:39:13.840Z,99459.40
2017-10-28T05:41:41.447Z,99451.86
2017-10-28T05:44:09.104Z,99464.84
2017-10-28T05:46:36.774Z,99459.61
2017-10-28T05:49:04.464Z,99470.41
2017-10-28T05:51:32.143Z,99471.89
2017-10-28T05:53:59.873Z,99468.42
2017-10-28T05:56:27.719Z,99466.86
2017-10-28T05:58:55.491Z,99478.87
2017-10-28T06:01:23.284Z,99468.58
2017-10-28T06:03:50.895Z,99469.16
2017-10-28T06:06:18.534Z,99477.18
2017-10-28T06:08:46.284Z,99474.40
2017-10-28T06:11:13.892Z,99476.72
2017-10-28T06:13:41.528Z,99465.55
2017-10-28T06:16:09.183Z,99471.27
2017-10-28T06:18:36.862Z,99472.14
2017-10-28T06:21:04.541Z,99467.61
2017-10-28T06:23:32.271Z,99474.20
2017-10-28T06:26:00.189Z,99473.75
2017-10-28T06:28:27.801Z,99466.75
2017-10-28T06:30:55.532Z,99474.36
2017-10-28T06:33:23.226Z,99472.23
2017-10-28T06:35:50.893Z,99470.04
2017-10-28T06:38:18.650Z,99472.17
2017-10-28T06:40:46.327Z,99480.27
2017-10-28T06:43:13.971Z,99480.66
2017-10-28T06:45:41.636Z,99486.61
2017-10-28T06:48:10.020Z,99491.20
2017-10-28T06:50:37.752Z,99492.45
2017-10-28T06:53:05.467Z,99488.93
2017-10-28T06:55:33.086Z,99492.27
2017-10-28T06:58:00.824Z,99495.80
2017-10-28T07:00:28.542Z,99496.28
2017-10-28T07:02:56.383Z,99488.07
2017-10-28T07:05:23.991Z,99480.47
2017-10-28T07:07:51.656Z,99487.28
2017-10-28T07:10:19.293Z,99481.64
2017-10-28T07:12:46.928Z,99484.53
2017-10-28T07:15:14.651Z,99483.73
2017-10-28T07:17:42.319Z,99483.92
2017-10-28T07:20:09.966Z,99478.95
2017-10-28T07:22:37.678Z,99471.94
2017-10-28T07:25:05.336Z,99470.75
2017-10-28T07:27:33.007Z,99475.08
2017-10-28T07:30:00.655Z,99474.31
2017-10-28T07:32:28.252Z,99470.17
2017-10-28T07:34:56.093Z,99460.71
2017-10-28T07:37:23.856Z,99466.23
2017-10-28T07:39:51.476Z,99462.48
2017-10-28T07:42:19.216Z,99461.77
2017-10-28T07:44:47.039Z,99458.75
2017-10-28T07:47:14.719Z,99459.58
2017-10-28T07:49:42.509Z,99449.03
2017-10-28T07:52:10.165Z,99449.55
2017-10-28T07:54:37.848Z,99453.27
2017-10-28T07:57:05.516Z,99450.76
2017-10-28T07:59:33.225Z,99449.83
2017-10-28T08:02:00.823Z,99444.16
2017-10-28T08:04:28.548Z,99454.07
2017-10-28T08:06:56.211Z,99448.78
2017-10-28T08:09:23.818Z,99451.02
2017-10-28T08:11:51.496Z,99447.72
2017-10-28T08:14:19.259Z,99445.86
2017-10-28T08:16:46.884Z,99451.95
2017-10-28T08:19:14.579Z,99453.43
2017-10-28T08:21:42.235Z,99451.43
2017-10-28T08:24:09.916Z,99452.09
2017-10-28T08:26:37.536Z,99456.03
2017-10-28T08:29:05.179Z,99442.55
2017-10-28T08:31:32.918Z,99449.20
2017-10-28T08:34:00.564Z,99454.86
2017-10-28T08:36:28.292Z,99453.91
2017-10-28T08:38:55.896Z,99455.16
2017-10-28T08:41:23.569Z,99450.56
2017-10-28T08:43:51.236Z,99455.98
2017-10-28T08:46:18.840Z,99446.90
2017-10-28T08:48:46.502Z,99444.40
2017-10-28T08:51:14.247Z,99455.25
2017-10-28T08:53:41.857Z,99457.08
2017-10-28T08:56:09.548Z,99458.31
2017-10-28T08:58:37.224Z,99457.09
2017-10-28T09:01:04.844Z,99456.75
2017-10-28T09:03:32.517Z,99460.13
2017-10-28T09:06:00.198Z,99458.45
2017-10-28T09:08:27.881Z,99454.38
2017-10-28T09:10:55.562Z,99450.56
2017-10-28T09:13:23.318Z,99450.83
2017-10-28T09:15:50.916Z,99444.34
2017-10-28T09:18:18.568Z,99448.42
2017-10-28T09:20:46.259Z,99449.19
2017-10-28T09:23:13.879Z,99451.11
2017-10-28T09:25:41.608Z,99445.25
2017-10-28T09:28:09.282Z,99444.67
2017-10-28T09:30:36.962Z,99443.64
2017-10-28T09:33:04.697Z,99438.67
2017-10-28T09:35:32.475Z,99435.30
2017-10-28T09:38:00.181Z,99429.78
2017-10-28T09:40:27.799Z,99433.06
2017-10-28T09:42:55.537Z,99426.58
2017-10-28T09:45:23.204Z,99435.02
2017-10-28T09:47:50.833Z,99430.05
2017-10-28T09:50:18.589Z,99429.05
2017-10-28T09:52:46.259Z,99420.87
2017-10-28T09:55:13.944Z,99428.83
2017-10-28T09:57:41.617Z,99414.55
2017-10-28T10:00:09.389Z,99416.25
2017-10-28T10:02:37.145Z,99410.83
2017-10-28T10:05:04.899Z,99414.39
2017-10-28T10:07:32.627Z,99418.23
2017-10-28T10:10:00.303Z,99417.81
2017-10-28T10:12:28.008Z,99412.61
2017-10-28T10:14:55.628Z,99407.86
2017-10-28T10:17:23.317Z,99409.81
2017-10-28T10:19:51.032Z,99402.47
2017-10-28T10:22:18.752Z,99404.64
2017-10-28T10:24:47.336Z,99403.32
2017-10-28T10:27:15.104Z,99404.00
2017-10-28T10:29:42.754Z,99409.59
2017-10-28T10:32:10.364Z,99402.98
2017-10-28T10:34:38.126Z,99400.72
2017-10-28T10:37:05.795Z,99399.20
2017-10-28T10:39:33.428Z,99394.38
2017-10-28T10:42:01.091Z,99407.44
2017-10-28T10:44:28.698Z,99404.44
2017-10-28T10:46:56.391Z,99394.55
2017-10-28T10:49:24.181Z,99393.39
2017-10-28T10:51:51.814Z,99394.00
2017-10-28T10:54:19.492Z,99385.69
2017-10-28T10:56:47.195Z,99390.57
2017-10-28T10:59:14.894Z,99391.45
2017-10-28T11:01:43.505Z,99385.69
2017-10-28T11:04:11.231Z,99387.36
2017-10-28T11:06:39.037Z,99387.45
2017-10-28T11:09:06.746Z,99383.19
2017-10-28T11:11:34.505Z,99379.36
2017-10-28T11:14:02.157Z,99390.26
2017-10-28T11:16:29.875Z,99384.84
2017-10-28T11:18:57.632Z,99383.19
2017-10-28T11:21:25.348Z,99373.36
2017-10-28T11:23:52.979Z,99372.61
2017-10-28T11:26:20.783Z,99378.71
2017-10-28T11:28:48.424Z,99378.53
2017-10-28T11:31:16.063Z,99372.92
2017-10-28T11:33:43.792Z,99376.21
2017-10-28T11:36:11.475Z,99363.31
2017-10-28T11:38:39.219Z,99360.59
2017-10-28T11:41:07.048Z,99360.87
2017-10-28T11:43:34.692Z,99354.06
2017-10-28T11:46:02.299Z,99352.95
2017-10-28T11:48:29.979Z,99351.53
2017-10-28T11:50:57.647Z,99346.47
2017-10-28T11:53:26.083Z,99340.05
2017-10-28T11:55:53.765Z,99338.39
2017-10-28T11:58:21.400Z,99338.28
2017-10-28T12:00:49.177Z,99342.41
2017-10-28T12:03:16.877Z,99341.41
2017-10-28T12:05:44.503Z,99344.58
2017-10-28T12:08:12.176Z,99330.17
2017-10-28T12:10:39.945Z,99327.97
2017-10-28T12:13:07.663Z,99335.28
2017-10-28T12:15:35.271Z,99332.27
2017-10-28T12:18:02.992Z,99342.38
2017-10-28T12:20:30.751Z,99342.24
2017-10-28T12:22:58.375Z,99340.05
2017-10-28T12:25:26.341Z,99341.06
2017-10-28T12:27:54.006Z,99344.31
2017-10-28T12:30:21.708Z,99343.02
2017-10-28T12:32:49.395Z,99344.05
2017-10-28T12:35:16.999Z,99342.52
2017-10-28T12:37:45.405Z,99347.39
2017-10-28T12:40:13.071Z,99351.47
2017-10-28T12:42:40.678Z,99361.73
2017-10-28T12:45:09.117Z,99365.63
2017-10-28T12:47:36.938Z,99361.53
2017-10-28T12:50:04.645Z,99358.55
2017-10-28T12:52:32.315Z,99359.09
2017-10-28T12:55:00.188Z,99372.59
2017-10-28T12:57:27.843Z,99380.56
2017-10-28T12:59:55.592Z,99376.52
2017-10-28T13:02:23.343Z,99380.94
2017-10-28T13:04:51.037Z,99375.09
2017-10-28T13:07:18.735Z,99378.38
2017-10-28T13:09:46.583Z,99386.52
2017-10-28T13:12:14.229Z,99391.58
2017-10-28T13:14:41.852Z,99391.48
2017-10-28T13:17:09.638Z,99383.48
2017-10-28T13:19:37.426Z,99386.73
2017-10-28T13:22:05.147Z,99385.59
2017-10-28T13:24:32.930Z,99389.71
2017-10-28T13:27:00.747Z,99387.76
2017-10-28T13:29:28.628Z,99395.23
2017-10-28T13:31:56.435Z,99394.30
2017-10-28T13:34:24.081Z,99396.03
2017-10-28T13:36:51.781Z,99394.67
2017-10-28T13:39:19.548Z,99387.86
2017-10-28T13:41:47.319Z,99388.59
2017-10-28T13:44:15.125Z,99386.78
2017-10-28T13:46:42.935Z,99386.70
2017-10-28T13:49:10.587Z,99389.38
2017-10-28T13:51:38.272Z,99392.27
2017-10-28T13:54:06.156Z,99392.27
2017-10-28T13:56:33.837Z,99394.06
2017-10-28T13:59:01.513Z,99395.12
2017-10-28T14:01:29.242Z,99399.13
2017-10-28T14:03:56.876Z,99397.33
2017-10-28T14:06:24.587Z,99394.80
2017-10-28T14:08:52.347Z,99395.18
2017-10-28T14:11:20.031Z,99391.62
2017-10-28T14:13:47.651Z,99394.05
2017-10-28T14:16:15.427Z,99389.97
2017-10-28T14:18:43.043Z,99401.20
2017-10-28T14:21:10.740Z,99394.66
2017-10-28T14:23:38.581Z,99391.52
2017-10-28T14:26:06.247Z,99390.70
2017-10-28T14:28:34.688Z,99392.55
2017-10-28T14:31:02.443Z,99388.74
2017-10-28T14:33:30.138Z,99385.17
2017-10-28T14:35:57.872Z,99387.03
2017-10-28T14:38:25.655Z,99384.02
2017-10-28T14:40:53.280Z,99376.65
2017-10-28T14:43:20.907Z,99375.16
2017-10-28T14:45:48.696Z,99376.92
2017-10-28T14:48:16.363Z,99371.41
2017-10-28T14:50:44.032Z,99370.34
2017-10-28T14:53:11.856Z,99374.09
2017-10-28T14:55:39.508Z,99373.39
2017-10-28T14:58:07.127Z,99377.56
2017-10-28T15:00:34.856Z,99383.45
2017-10-28T15:03:02.538Z,99388.98
2017-10-28T15:05:30.160Z,99386.98
2017-10-28T15:07:57.840Z,99391.66
2017-10-28T15:10:25.523Z,99388.98
2017-10-28T15:12:53.139Z,99385.04
2017-10-28T15:15:20.873Z,99396.31
2017-10-28T15:17:48.488Z,99391.95
2017-10-28T15:20:16.276Z,99398.72
2017-10-28T15:22:43.941Z,99403.88
2017-10-28T15:25:11.620Z,99403.36
2017-10-28T15:27:39.245Z,99402.20
2017-10-28T15:30:06.963Z,99409.25
2017-10-28T15:32:34.629Z,99418.62
2017-10-28T15:35:02.253Z,99422.09
2017-10-28T15:37:30.003Z,99433.22
2017-10-28T15:39:57.671Z,99430.71
2017-10-28T15:42:25.284Z,99433.48
2017-10-28T15:44:52.951Z,99436.73
2017-10-28T15:47:20.612Z,99442.47
2017-10-28T15:49:48.348Z,99439.55
2017-10-28T15:52:16.021Z,99432.95
2017-10-28T15:54:43.643Z,99431.79
2017-10-28T15:57:11.263Z,99428.69
2017-10-28T15:59:39.012Z,99425.62
2017-10-28T16:02:06.700Z,99423.63
2017-10-28T16:04:34.311Z,99423.38
2017-10-28T16:07:02.224Z,99425.05
2017-10-28T16:09:29.851Z,99423.89
2017-10-28T16:11:57.528Z,99434.41
2017-10-28T16:14:25.269Z,99436.28
2017-10-28T16:16:52.899Z,99444.05
2017-10-28T16:19:20.513Z,99452.34
2017-10-28T16:21:48.283Z,99460.28
2017-10-28T16:24:15.920Z,99463.33
2017-10-28T16:26:43.561Z,99469.55
2017-10-28T16:29:11.253Z,99470.57
2017-10-28T16:31:38.956Z,99470.00
2017-10-28T16:34:06.592Z,99467.08
2017-10-28T16:36:34.283Z,99463.28
2017-10-28T16:39:01.915Z,99468.66
2017-10-28T16:41:30.053Z,99471.55
2017-10-28T16:43:58.059Z,99468.95
2017-10-28T16:46:25.713Z,99476.41
2017-10-28T16:48:54.575Z,99465.91
2017-10-28T16:51:22.296Z,99457.09
2017-10-28T16:53:49.974Z,99462.31
2017-10-28T16:56:17.655Z,99459.27
2017-10-28T16:58:45.453Z,99452.86
2017-10-28T17:01:13.220Z,99455.13
2017-10-28T17:03:40.860Z,99456.47
2017-10-28T17:06:08.549Z,99462.08
2017-10-28T17:08:36.167Z,99455.97
2017-10-28T17:11:03.860Z,99456.89
2017-10-28T17:13:31.535Z,99455.03
2017-10-28T17:15:59.550Z,99459.90
2017-10-28T17:18:27.252Z,99456.38
2017-10-28T17:20:54.932Z,99458.14
2017-10-28T17:23:22.549Z,99443.44
2017-10-28T17:25:50.253Z,99442.01
2017-10-28T17:28:17.930Z,99444.25
2017-10-28T17:30:45.563Z,99442.91
2017-10-28T17:33:13.245Z,99448.70
2017-10-28T17:35:40.938Z,99447.98
2017-10-28T17:38:08.570Z,99445.27
2017-10-28T17:40:36.247Z,99447.53
2017-10-28T17:43:03.928Z,99435.87
2017-10-28T17:45:31.552Z,99437.06
2017-10-28T17:47:59.167Z,99442.64
2017-10-28T17:50:26.835Z,99443.27
2017-10-28T17:52:54.465Z,99446.77
2017-10-28T17:55:22.179Z,99449.66
2017-10-28T17:57:49.859Z,99448.45
2017-10-28T18:00:17.601Z,99449.63
2017-10-28T18:02:45.231Z,99452.28
2017-10-28T18:05:12.908Z,99452.45
2017-10-28T18:07:40.592Z,99455.83
2017-10-28T18:10:08.276Z,99458.34
2017-10-28T18:12:35.987Z,99457.92
2017-10-28T18:15:03.712Z,99461.67
2017-10-28T18:17:31.335Z,99462.22
2017-10-28T18:19:58.995Z,99462.36
2017-10-28T18:22:26.664Z,99462.48
2017-10-28T18:24:54.292Z,99454.69
2017-10-28T18:27:21.955Z,99462.33
2017-10-28T18:29:49.585Z,99455.72
2017-10-28T18:32:17.255Z,99454.49
2017-10-28T18:34:51.166Z,99454.94
2017-10-28T18:37:18.779Z,99461.11
2017-10-28T18:39:46.457Z,99460.59
2017-10-28T18:42:14.127Z,99459.11
2017-10-28T18:44:41.800Z,99454.84
2017-10-28T18:47:09.416Z,99454.75
2017-10-28T18:49:37.155Z,99460.45
2017-10-28T18:52:04.780Z,99450.03
2017-10-28T18:54:32.448Z,99452.72
2017-10-28T18:57:00.103Z,99451.52
2017-10-28T18:59:27.715Z,99447.92
2017-10-28T19:01:55.398Z,99443.34
2017-10-28T19:04:23.072Z,99446.74
2017-10-28T19:06:50.672Z,99442.75
2017-10-28T19:09:18.277Z,99454.58
2017-10-28T19:11:46.000Z,99450.55
2017-10-28T19:14:13.672Z,99449.06
2017-10-28T19:16:41.340Z,99445.45
2017-10-28T19:19:09.060Z,99450.08
2017-10-28T19:21:36.731Z,99456.56
2017-10-28T19:24:04.427Z,99448.61
2017-10-28T19:26:32.089Z,99448.78
2017-10-28T19:28:59.765Z,99448.11
2017-10-28T19:31:27.419Z,99446.58
2017-10-28T19:33:55.088Z,99450.09
2017-10-28T19:36:22.748Z,99456.75
2017-10-28T19:38:50.356Z,99459.89
2017-10-28T19:41:18.041Z,99453.43
2017-10-28T19:43:45.709Z,99461.08
2017-10-28T19:46:13.315Z,99461.80
2017-10-28T19:48:40.987Z,99453.65
2017-10-28T19:51:08.599Z,99454.24
2017-10-28T19:53:36.273Z,99447.46
2017-10-28T19:56:03.988Z,99444.79
2017-10-28T19:58:31.656Z,99443.22
2017-10-28T20:00:59.312Z,99441.00
2017-10-28T20:03:27.031Z,99446.27
2017-10-28T20:05:54.691Z,99443.45
2017-10-28T20:08:22.355Z,99439.47
2017-10-28T20:10:50.063Z,99439.81
2017-10-28T20:13:17.680Z,99431.25
2017-10-28T20:15:45.343Z,99440.72
2017-10-28T20:18:13.019Z,99434.38
2017-10-28T20:20:40.692Z,99436.34
2017-10-28T20:23:08.357Z,99440.26
2017-10-28T20:25:36.008Z,99433.03
2017-10-28T20:28:03.610Z,99430.59
2017-10-28T20:30:31.208Z,99426.76
2017-10-28T20:32:58.895Z,99431.16
2017-10-28T20:35:26.499Z,99420.56
2017-10-28T20:37:54.161Z,99418.10
2017-10-28T20:40:21.873Z,99409.90
2017-10-28T20:42:49.534Z,99412.09
2017-10-28T20:45:17.135Z,99411.88
2017-10-28T20:47:44.792Z,99415.33
2017-10-28T20:50:12.473Z,99413.97
2017-10-28T20:52:40.075Z,99405.23
2017-10-28T20:55:07.715Z,99405.52
2017-10-28T20:57:35.384Z,99404.92
2017-10-28T21:00:04.739Z,99406.28
2017-10-28T21:02:32.484Z,99410.64
2017-10-28T21:05:00.088Z,99416.44
2017-10-28T21:07:27.689Z,99413.66
2017-10-28T21:09:55.332Z,99421.95
2017-10-28T21:12:22.985Z,99417.72
2017-10-28T21:14:50.584Z,99402.09
2017-10-28T21:17:18.223Z,99406.45
2017-10-28T21:19:45.819Z,99404.25
2017-10-28T21:22:13.868Z,99401.83
2017-10-28T21:24:41.530Z,99399.72
2017-10-28T21:27:09.124Z,99403.83
2017-10-28T21:29:36.724Z,99405.53
2017-10-28T21:32:04.364Z,99406.36
2017-10-28T21:34:32.012Z,99409.29
2017-10-28T21:36:59.611Z,99405.73
2017-10-28T21:39:27.320Z,99418.69
2017-10-28T21:41:54.911Z,99417.94
2017-10-28T21:44:22.503Z,99415.38
2017-10-28T21:46:50.151Z,99412.59
2017-10-28T21:49:17.800Z,99415.22
2017-10-28T21:51:45.457Z,99406.33
2017-10-28T21:54:13.104Z,99413.13
2017-10-28T21:56:40.706Z,99417.82
2017-10-28T21:59:08.304Z,99420.71
2017-10-28T22:01:35.956Z,99419.79
2017-10-28T22:04:03.562Z,99416.92
2017-10-28T22:06:31.156Z,99421.98
2017-10-28T22:08:58.808Z,99417.13
2017-10-28T22:11:26.405Z,99416.88
2017-10-28T22:13:54.000Z,99413.52
2017-10-28T22:16:21.636Z,99420.58
2017-10-28T22:18:49.297Z,99421.80
2017-10-28T22:21:16.903Z,99426.81
2017-10-28T22:23:44.553Z,99419.61
2017-10-28T22:26:12.141Z,99420.70
2017-10-28T22:28:39.791Z,99430.19
2017-10-28T22:31:07.528Z,99420.11
2017-10-28T22:33:35.128Z,99426.14
2017-10-28T22:36:02.780Z,99427.25
2017-10-28T22:38:30.488Z,99429.31
2017-10-28T22:40:58.148Z,99426.64
2017-10-28T22:43:25.800Z,99424.11
2017-10-28T22:45:53.462Z,99422.59
2017-10-28T22:48:21.854Z,99420.68
2017-10-28T22:50:49.516Z,99421.98
2017-10-28T22:53:17.168Z,99418.79
2017-10-28T22:55:44.787Z,99422.67
2017-10-28T22:58:12.452Z,99420.73
2017-10-28T23:00:40.095Z,99429.86
2017-10-28T23:03:07.756Z,99425.17
2017-10-28T23:05:35.411Z,99424.02
2017-10-28T23:08:03.124Z,99428.09
2017-10-28T23:10:30.767Z,99424.96
2017-10-28T23:12:58.423Z,99428.09
2017-10-28T23:15:26.077Z,99425.50
2017-10-28T23:17:53.684Z,99429.68
2017-10-28T23:20:21.349Z,99427.59
2017-10-28T23:22:49.104Z,99429.77
2017-10-28T23:25:16.704Z,99424.91
2017-10-28T23:27:44.368Z,99427.69
2017-10-28T23:30:12.072Z,99427.00
2017-10-28T23:32:39.720Z,99423.33
2017-10-28T23:35:07.382Z,99426.56
2017-10-28T23:37:35.027Z,99427.81
2017-10-28T23:40:02.615Z,99418.71
2017-10-28T23:42:30.218Z,99422.44
2017-10-28T23:44:57.864Z,99413.79
2017-10-28T23:47:25.460Z,99415.91
2017-10-28T23:49:53.052Z,99413.13
2017-10-28T23:52:20.705Z,99409.67
2017-10-28T23:54:48.367Z,99405.83
2017-10-28T23:57:16.055Z,99397.30
2017-10-28T23:59:43.770Z,99395.72
